createdAt,value
2023-03-22T00:02:59.967Z,100.00
2023-03-22T00:06:13.657Z,100.00
2023-03-22T00:09:25.824Z,100.00
2023-03-22T00:12:37.886Z,100.00
2023-03-22T00:15:50.510Z,100.00
2023-03-22T00:19:05.063Z,100.00
2023-03-22T00:22:17.062Z,100.00
2023-03-22T00:25:29.840Z,100.00
2023-03-22T00:28:42.716Z,100.00
2023-03-22T00:31:56.133Z,100.00
2023-03-22T00:35:09.474Z,100.00
2023-03-22T00:38:27.309Z,100.00
2023-03-22T00:41:35.831Z,100.00
2023-03-22T00:44:47.936Z,100.00
2023-03-22T00:48:00.084Z,100.00
2023-03-22T00:51:14.102Z,100.00
2023-03-22T00:54:26.510Z,100.00
2023-03-22T00:57:38.758Z,100.00
2023-03-22T01:00:51.209Z,100.00
2023-03-22T01:04:05.252Z,100.00
2023-03-22T01:07:18.145Z,100.00
2023-03-22T01:10:30.668Z,100.00
2023-03-22T01:13:45.687Z,100.00
2023-03-22T01:16:58.855Z,100.00
2023-03-22T01:20:14.803Z,100.00
2023-03-22T01:23:27.229Z,100.00
2023-03-22T01:26:39.143Z,100.00
2023-03-22T01:29:51.477Z,100.00
2023-03-22T01:33:03.648Z,100.00
2023-03-22T01:36:18.454Z,100.00
2023-03-22T01:39:32.446Z,100.00
2023-03-22T01:42:47.125Z,100.00
2023-03-22T01:46:02.373Z,100.00
2023-03-22T01:49:19.319Z,100.00
2023-03-22T01:52:32.129Z,100.00
2023-03-22T01:55:46.979Z,100.00
2023-03-22T01:59:02.372Z,100.00
2023-03-22T02:02:19.617Z,100.00
2023-03-22T02:05:34.388Z,100.00
2023-03-22T02:08:46.897Z,100.00
2023-03-22T02:12:06.988Z,100.00
2023-03-22T02:15:23.596Z,100.00
2023-03-22T02:19:10.608Z,100.00
2023-03-22T02:22:57.649Z,100.00
2023-03-22T02:27:02.933Z,100.00
2023-03-22T02:30:49.905Z,100.00
2023-03-22T02:34:55.161Z,100.00
2023-03-22T02:38:58.255Z,100.00
2023-03-22T02:42:31.873Z,100.00
2023-03-22T02:45:49.441Z,100.00
2023-03-22T02:49:08.270Z,100.00
2023-03-22T02:52:25.191Z,100.00
2023-03-22T02:55:42.452Z,100.00
2023-03-22T02:58:55.745Z,100.00
2023-03-22T03:02:09.396Z,100.00
2023-03-22T03:05:24.336Z,100.00
2023-03-22T03:08:39.421Z,100.00
2023-03-22T03:11:54.152Z,100.00
2023-03-22T03:15:07.988Z,100.00
2023-03-22T03:18:32.340Z,100.00
2023-03-22T03:21:51.317Z,100.00
2023-03-22T03:25:09.023Z,100.00
2023-03-22T03:28:30.452Z,100.00
2023-03-22T03:31:48.811Z,100.00
2023-03-22T03:35:06.071Z,100.00
2023-03-22T03:38:23.655Z,100.00
2023-03-22T03:41:38.419Z,100.00
2023-03-22T03:44:51.344Z,100.00
2023-03-22T03:48:08.882Z,100.00
2023-03-22T03:51:22.933Z,100.00
2023-03-22T03:54:35.133Z,100.00
2023-03-22T03:57:48.376Z,100.00
2023-03-22T04:01:00.463Z,100.00
2023-03-22T04:04:26.707Z,100.00
2023-03-22T04:07:43.932Z,100.00
2023-03-22T04:10:58.695Z,100.00
2023-03-22T04:14:12.134Z,100.00
2023-03-22T04:17:24.447Z,100.00
2023-03-22T04:20:39.297Z,100.00
2023-03-22T04:23:51.678Z,100.00
2023-03-22T04:27:03.892Z,100.00
2023-03-22T04:30:22.347Z,100.00
2023-03-22T04:33:47.601Z,100.00
2023-03-22T04:37:08.199Z,100.00
2023-03-22T04:40:27.268Z,100.00
2023-03-22T04:43:39.361Z,100.00
2023-03-22T04:46:53.532Z,100.00
2023-03-22T04:50:05.821Z,100.00
2023-03-22T04:53:19.778Z,100.00
2023-03-22T04:56:32.168Z,100.00
2023-03-22T04:59:44.817Z,100.00
2023-03-22T05:02:56.939Z,100.00
2023-03-22T05:06:14.290Z,100.00
2023-03-22T05:09:28.725Z,100.00
2023-03-22T05:12:41.881Z,100.00
2023-03-22T05:16:00.069Z,100.00
2023-03-22T05:19:14.853Z,100.00
2023-03-22T05:22:29.521Z,100.00
2023-03-22T05:25:45.307Z,100.00
2023-03-22T05:29:03.383Z,100.00
2023-03-22T05:32:18.503Z,100.00
2023-03-22T05:35:32.164Z,100.00
2023-03-22T05:38:46.660Z,100.00
2023-03-22T05:41:59.346Z,100.00
2023-03-22T05:45:15.017Z,100.00
2023-03-22T05:48:26.670Z,100.00
2023-03-22T05:51:40.767Z,100.00
2023-03-22T05:54:53.147Z,100.00
2023-03-22T05:58:05.654Z,100.00
2023-03-22T06:01:21.678Z,100.00
2023-03-22T06:04:33.653Z,100.00
2023-03-22T06:07:51.072Z,100.00
2023-03-22T06:11:05.278Z,100.00
2023-03-22T06:14:17.730Z,100.00
2023-03-22T06:17:44.418Z,100.00
2023-03-22T06:20:58.387Z,100.00
2023-03-22T06:24:11.848Z,100.00
2023-03-22T06:27:25.569Z,100.00
2023-03-22T06:30:38.469Z,100.00
2023-03-22T06:34:05.955Z,100.00
2023-03-22T06:37:20.328Z,100.00
2023-03-22T06:40:35.992Z,100.00
2023-03-22T06:43:48.251Z,100.00
2023-03-22T06:47:19.999Z,100.00
2023-03-22T06:50:40.286Z,100.00
2023-03-22T06:53:55.528Z,100.00
2023-03-22T06:57:08.286Z,100.00
2023-03-22T07:00:24.351Z,100.00
2023-03-22T07:03:36.404Z,100.00
2023-03-22T07:06:50.610Z,100.00
2023-03-22T07:10:03.523Z,100.00
2023-03-22T07:13:16.968Z,100.00
2023-03-22T07:16:30.389Z,100.00
2023-03-22T07:19:45.157Z,100.00
2023-03-22T07:22:59.017Z,100.00
2023-03-22T07:26:13.483Z,100.00
2023-03-22T07:29:27.010Z,100.00
2023-03-22T07:32:39.848Z,100.00
2023-03-22T07:35:53.969Z,100.00
2023-03-22T07:39:06.300Z,100.00
2023-03-22T07:42:20.491Z,100.00
2023-03-22T07:45:52.631Z,100.00
2023-03-22T07:49:23.265Z,100.00
2023-03-22T07:52:50.409Z,100.00
2023-03-22T07:56:03.389Z,100.00
2023-03-22T07:59:16.652Z,100.00
2023-03-22T08:02:30.519Z,100.00
2023-03-22T08:05:46.381Z,100.00
2023-03-22T08:08:59.748Z,100.00
2023-03-22T08:12:12.500Z,100.00
2023-03-22T08:15:25.561Z,99.54
2023-03-22T08:18:38.441Z,97.94
2023-03-22T08:21:51.651Z,98.87
2023-03-22T08:25:09.950Z,98.64
2023-03-22T08:28:23.568Z,95.34
2023-03-22T08:31:36.179Z,93.31
2023-03-22T08:34:49.518Z,94.47
2023-03-22T08:38:02.941Z,94.06
2023-03-22T08:41:17.158Z,96.35
2023-03-22T08:44:29.394Z,98.51
2023-03-22T08:47:41.843Z,96.81
2023-03-22T08:50:54.663Z,98.65
2023-03-22T08:54:10.499Z,98.66
2023-03-22T08:57:38.936Z,99.96
2023-03-22T09:00:53.703Z,97.60
2023-03-22T09:04:11.569Z,96.24
2023-03-22T09:07:24.626Z,97.09
2023-03-22T09:10:39.085Z,96.43
2023-03-22T09:13:53.010Z,97.53
2023-03-22T09:17:07.384Z,96.46
2023-03-22T09:20:22.291Z,96.50
2023-03-22T09:23:35.625Z,98.49
2023-03-22T09:26:48.142Z,97.91
2023-03-22T09:30:02.499Z,98.99
2023-03-22T09:33:17.486Z,99.90
2023-03-22T09:36:32.462Z,100.00
2023-03-22T09:39:45.429Z,100.00
2023-03-22T09:43:02.216Z,100.00
2023-03-22T09:46:20.633Z,100.00
2023-03-22T09:49:52.528Z,100.00
2023-03-22T09:52:53.440Z,100.00
2023-03-22T09:56:11.755Z,100.00
2023-03-22T09:59:30.153Z,100.00
2023-03-22T10:02:53.617Z,100.00
2023-03-22T10:06:11.574Z,99.83
2023-03-22T10:09:29.667Z,98.83
2023-03-22T10:12:48.002Z,94.88
2023-03-22T10:16:03.266Z,95.44
2023-03-22T10:19:23.996Z,92.94
2023-03-22T10:22:40.244Z,89.93
2023-03-22T10:25:54.144Z,89.09
2023-03-22T10:29:09.578Z,91.87
2023-03-22T10:32:26.370Z,89.11
2023-03-22T10:35:39.607Z,87.94
2023-03-22T10:38:56.939Z,88.62
2023-03-22T10:42:15.446Z,90.14
2023-03-22T10:45:31.143Z,89.56
2023-03-22T10:48:48.111Z,88.86
2023-03-22T10:52:01.395Z,88.53
2023-03-22T10:55:18.210Z,87.02
2023-03-22T10:58:34.434Z,88.85
2023-03-22T11:01:51.437Z,86.39
2023-03-22T11:05:03.514Z,83.61
2023-03-22T11:08:21.267Z,82.72
2023-03-22T11:11:35.984Z,83.37
2023-03-22T11:14:51.454Z,81.53
2023-03-22T11:18:09.261Z,80.00
2023-03-22T11:21:23.625Z,76.10
2023-03-22T11:24:39.405Z,76.15
2023-03-22T11:28:00.664Z,75.24
2023-03-22T11:31:17.571Z,73.73
2023-03-22T11:34:30.794Z,74.01
2023-03-22T11:37:48.826Z,74.44
2023-03-22T11:41:06.525Z,73.69
2023-03-22T11:44:23.769Z,74.67
2023-03-22T11:47:41.689Z,73.74
2023-03-22T11:50:56.327Z,75.42
2023-03-22T11:54:15.903Z,75.76
2023-03-22T11:57:33.606Z,73.22
2023-03-22T12:00:46.567Z,73.98
2023-03-22T12:04:03.047Z,73.31
2023-03-22T12:07:23.853Z,71.63
2023-03-22T12:10:41.255Z,69.85
2023-03-22T12:13:59.190Z,72.45
2023-03-22T12:17:17.743Z,69.98
2023-03-22T12:20:39.624Z,69.23
2023-03-22T12:23:52.098Z,70.46
2023-03-22T12:27:08.800Z,71.23
2023-03-22T12:30:26.316Z,67.99
2023-03-22T12:33:42.406Z,67.81
2023-03-22T12:36:58.569Z,66.89
2023-03-22T12:40:18.529Z,66.57
2023-03-22T12:43:41.975Z,64.91
2023-03-22T12:47:00.001Z,64.86
2023-03-22T12:50:18.755Z,65.09
2023-03-22T12:53:39.438Z,63.41
2023-03-22T12:56:53.042Z,61.25
2023-03-22T13:00:13.748Z,59.64
2023-03-22T13:03:32.912Z,61.85
2023-03-22T13:07:14.629Z,58.93
2023-03-22T13:11:17.799Z,59.02
2023-03-22T13:15:03.644Z,57.31
2023-03-22T13:18:43.779Z,57.32
2023-03-22T13:22:03.166Z,58.08
2023-03-22T13:25:33.290Z,55.40
2023-03-22T13:28:47.238Z,55.65
2023-03-22T13:32:06.495Z,56.63
2023-03-22T13:35:31.758Z,56.54
2023-03-22T13:38:48.217Z,56.85
2023-03-22T13:42:18.446Z,57.93
2023-03-22T13:45:41.365Z,56.30
2023-03-22T13:49:21.667Z,56.02
2023-03-22T13:52:43.311Z,56.19
2023-03-22T13:56:07.904Z,55.94
2023-03-22T13:59:25.519Z,55.79
2023-03-22T14:02:41.893Z,56.71
2023-03-22T14:06:02.757Z,56.18
2023-03-22T14:09:24.516Z,55.39
2023-03-22T14:12:44.308Z,55.61
2023-03-22T14:16:00.223Z,54.95
2023-03-22T14:19:17.567Z,56.32
2023-03-22T14:48:42.707Z,56.35
2023-03-22T14:55:12.200Z,56.55
2023-03-22T14:58:26.186Z,57.29
2023-03-22T15:01:42.033Z,58.16
2023-03-22T15:04:54.943Z,58.81
2023-03-22T15:08:17.302Z,58.55
2023-03-22T15:11:29.962Z,58.37
2023-03-22T15:14:43.396Z,59.08
2023-03-22T15:17:57.160Z,58.72
2023-03-22T15:21:14.265Z,58.99
2023-03-22T15:24:38.760Z,58.79
2023-03-22T15:27:51.694Z,59.90
2023-03-22T15:31:07.319Z,62.39
2023-03-22T15:34:27.263Z,60.24
2023-03-22T15:37:43.636Z,62.25
2023-03-22T15:40:56.347Z,62.99
2023-03-22T15:44:19.416Z,64.60
2023-03-22T15:47:32.105Z,65.87
2023-03-22T15:50:49.971Z,65.39
2023-03-22T15:54:12.928Z,65.65
2023-03-22T15:57:33.558Z,64.57
2023-03-22T16:00:47.154Z,67.50
2023-03-22T16:04:03.713Z,66.94
2023-03-22T16:13:26.408Z,69.62
2023-03-22T16:19:39.766Z,68.83
2023-03-22T16:22:56.074Z,68.75
2023-03-22T16:26:08.571Z,71.28
2023-03-22T16:29:20.892Z,71.15
2023-03-22T16:32:35.215Z,69.80
2023-03-22T16:35:48.015Z,69.56
2023-03-22T16:39:00.338Z,69.59
2023-03-22T16:42:19.440Z,69.41
2023-03-22T16:45:34.660Z,71.69
2023-03-22T16:48:47.443Z,73.05
2023-03-22T16:51:59.800Z,74.27
2023-03-22T16:55:19.545Z,74.69
2023-03-22T16:58:32.043Z,74.98
2023-03-22T17:01:44.915Z,77.93
2023-03-22T17:04:57.321Z,77.28
2023-03-22T17:08:13.293Z,75.43
2023-03-22T17:11:30.138Z,78.94
2023-03-22T17:14:42.106Z,74.47
2023-03-22T17:17:54.968Z,72.79
2023-03-22T17:21:07.248Z,73.78
2023-03-22T17:24:19.833Z,74.93
2023-03-22T17:27:32.109Z,75.85
2023-03-22T17:30:44.866Z,76.98
2023-03-22T17:33:58.115Z,77.25
2023-03-22T17:37:10.308Z,76.52
2023-03-22T17:43:38.328Z,76.70
2023-03-22T17:50:05.609Z,76.63
2023-03-22T17:53:40.543Z,77.61
2023-03-22T17:57:13.943Z,77.41
2023-03-22T17:59:48.822Z,77.27
2023-03-22T18:03:01.677Z,76.55
2023-03-22T18:06:16.424Z,77.31
2023-03-22T18:09:31.218Z,77.82
2023-03-22T18:12:46.387Z,78.00
2023-03-22T18:15:58.564Z,78.67
2023-03-22T18:19:11.161Z,78.26
2023-03-22T18:22:24.042Z,78.25
2023-03-22T18:25:41.792Z,78.86
2023-03-22T18:28:51.275Z,79.43
2023-03-22T18:32:12.188Z,79.07
2023-03-22T18:35:19.172Z,78.71
2023-03-22T18:39:16.849Z,79.18
2023-03-22T18:41:50.915Z,79.40
2023-03-22T18:45:04.050Z,79.07
2023-03-22T18:48:17.420Z,79.69
2023-03-22T18:51:31.793Z,80.04
2023-03-22T18:54:44.147Z,79.99
2023-03-22T18:57:56.726Z,80.19
2023-03-22T19:01:09.513Z,79.72
2023-03-22T19:04:21.864Z,79.55
2023-03-22T19:10:48.421Z,79.61
2023-03-22T19:14:51.079Z,79.89
2023-03-22T19:17:15.111Z,79.72
2023-03-22T19:20:35.110Z,79.76
2023-03-22T19:23:42.538Z,79.95
2023-03-22T19:27:07.180Z,79.67
2023-03-22T19:30:13.616Z,79.98
2023-03-22T19:33:39.812Z,79.39
2023-03-22T19:36:42.494Z,80.03
2023-03-22T19:40:45.171Z,79.85
2023-03-22T19:43:09.048Z,79.68
2023-03-22T19:46:21.637Z,79.85
2023-03-22T19:49:36.729Z,79.03
2023-03-22T19:52:49.153Z,79.19
2023-03-22T19:56:01.358Z,78.75
2023-03-22T19:59:16.913Z,78.54
2023-03-22T20:02:28.444Z,78.72
2023-03-22T20:05:49.486Z,78.06
2023-03-22T20:08:56.122Z,77.98
2023-03-22T20:12:08.870Z,77.89
2023-03-22T20:15:22.318Z,77.72
2023-03-22T20:18:36.305Z,78.10
2023-03-22T20:21:48.827Z,77.31
2023-03-22T20:25:01.226Z,77.53
2023-03-22T20:28:13.699Z,77.69
2023-03-22T20:31:27.589Z,77.55
2023-03-22T20:34:40.101Z,78.45
2023-03-22T20:37:52.705Z,78.40
2023-03-22T20:41:05.977Z,80.02
2023-03-22T20:44:18.725Z,77.96
2023-03-22T20:47:31.964Z,79.15
2023-03-22T20:50:47.698Z,81.13
2023-03-22T20:54:00.987Z,82.41
2023-03-22T20:57:13.949Z,81.13
2023-03-22T21:00:27.387Z,80.74
2023-03-22T21:03:42.013Z,82.52
2023-03-22T21:06:54.776Z,83.04
2023-03-22T21:10:08.740Z,83.10
2023-03-22T21:13:22.204Z,81.20
2023-03-22T21:16:34.961Z,82.94
2023-03-22T21:19:49.114Z,84.00
2023-03-22T21:23:02.327Z,83.54
2023-03-22T21:26:18.349Z,87.14
2023-03-22T21:29:31.102Z,86.25
2023-03-22T21:32:47.845Z,84.83
2023-03-22T21:36:01.088Z,86.82
2023-03-22T21:39:13.692Z,87.72
2023-03-22T21:42:26.830Z,85.63
2023-03-22T21:45:39.202Z,85.43
2023-03-22T21:48:54.224Z,86.48
2023-03-22T21:52:07.800Z,86.73
2023-03-22T21:55:20.731Z,87.86
2023-03-22T21:58:33.520Z,86.82
2023-03-22T22:01:47.464Z,84.23
2023-03-22T22:05:00.152Z,84.65
2023-03-22T22:08:13.635Z,85.51
2023-03-22T22:11:27.139Z,85.65
2023-03-22T22:14:39.510Z,83.35
2023-03-22T22:17:52.245Z,83.53
2023-03-22T22:21:09.199Z,86.67
2023-03-22T22:24:21.547Z,84.13
2023-03-22T22:27:34.598Z,86.60
2023-03-22T22:30:46.811Z,85.44
2023-03-22T22:34:00.771Z,88.25
2023-03-22T22:37:13.054Z,86.25
2023-03-22T22:40:25.920Z,87.26
2023-03-22T22:43:38.539Z,87.78
2023-03-22T22:46:50.772Z,87.00
2023-03-22T22:50:04.204Z,85.46
2023-03-22T22:53:16.705Z,87.96
2023-03-22T22:56:30.092Z,88.54
2023-03-22T22:59:42.497Z,89.01
2023-03-22T23:02:54.755Z,86.46
2023-03-22T23:06:09.215Z,86.97
2023-03-22T23:09:21.933Z,88.35
2023-03-22T23:12:34.590Z,87.63
2023-03-22T23:15:50.094Z,87.02
2023-03-22T23:19:03.053Z,86.97
2023-03-22T23:22:15.359Z,87.24
2023-03-22T23:25:28.394Z,86.64
2023-03-22T23:28:42.957Z,87.43
2023-03-22T23:31:55.184Z,86.35
2023-03-22T23:35:08.948Z,86.77
2023-03-22T23:38:21.513Z,87.40
2023-03-22T23:41:37.240Z,87.74
2023-03-22T23:44:50.176Z,87.79
2023-03-22T23:48:03.146Z,86.61
2023-03-22T23:51:17.406Z,87.37
2023-03-22T23:54:29.439Z,86.32
2023-03-22T23:57:42.330Z,87.17
